createdAt,value
2018-07-14T00:01:34.651Z,18.04
2018-07-14T00:04:02.351Z,17.96
2018-07-14T00:06:30.037Z,18.01
2018-07-14T00:08:57.749Z,17.74
2018-07-14T00:11:25.417Z,17.41
2018-07-14T00:13:53.073Z,17.68
2018-07-14T00:16:20.733Z,17.77
2018-07-14T00:18:48.378Z,17.78
2018-07-14T00:21:16.026Z,17.10
2018-07-14T00:23:43.706Z,17.47
2018-07-14T00:26:11.460Z,17.02
2018-07-14T00:28:39.150Z,16.89
2018-07-14T00:31:06.809Z,17.14
2018-07-14T00:33:34.493Z,17.49
2018-07-14T00:36:02.166Z,17.63
2018-07-14T00:38:29.813Z,17.35
2018-07-14T00:40:57.546Z,16.96
2018-07-14T00:43:25.189Z,16.86
2018-07-14T00:45:52.900Z,17.05
2018-07-14T00:48:20.625Z,16.84
2018-07-14T00:50:48.298Z,17.20
2018-07-14T00:53:15.960Z,16.77
2018-07-14T00:55:43.619Z,16.72
2018-07-14T00:58:11.284Z,16.78
2018-07-14T01:00:38.946Z,16.60
2018-07-14T01:03:06.625Z,16.43
2018-07-14T01:05:34.284Z,16.68
2018-07-14T01:08:01.961Z,16.63
2018-07-14T01:10:29.625Z,16.57
2018-07-14T01:12:58.142Z,16.41
2018-07-14T01:15:25.828Z,16.48
2018-07-14T01:17:53.654Z,16.40
2018-07-14T01:20:21.497Z,16.05
2018-07-14T01:22:49.178Z,16.06
2018-07-14T01:25:16.832Z,15.94
2018-07-14T01:27:44.474Z,16.53
2018-07-14T01:30:12.123Z,16.57
2018-07-14T01:32:39.802Z,16.68
2018-07-14T01:35:07.888Z,16.71
2018-07-14T01:37:35.692Z,16.44
2018-07-14T01:40:03.393Z,16.42
2018-07-14T01:42:31.057Z,16.17
2018-07-14T01:44:58.777Z,16.10
2018-07-14T01:47:26.410Z,16.10
2018-07-14T01:49:54.172Z,15.80
2018-07-14T01:52:21.865Z,15.79
2018-07-14T01:54:49.521Z,15.84
2018-07-14T01:57:17.177Z,15.70
2018-07-14T01:59:44.826Z,15.51
2018-07-14T02:02:12.502Z,15.53
2018-07-14T02:04:40.185Z,15.49
2018-07-14T02:07:07.828Z,15.38
2018-07-14T02:09:35.489Z,15.34
2018-07-14T02:12:03.173Z,15.31
2018-07-14T02:14:30.846Z,15.42
2018-07-14T02:16:58.543Z,15.47
2018-07-14T02:19:26.197Z,15.52
2018-07-14T02:21:53.871Z,15.53
2018-07-14T02:24:21.563Z,15.64
2018-07-14T02:26:49.212Z,15.65
2018-07-14T02:29:16.921Z,15.60
2018-07-14T02:31:44.641Z,15.42
2018-07-14T02:34:12.295Z,15.48
2018-07-14T02:36:40.095Z,15.28
2018-07-14T02:39:07.790Z,15.25
2018-07-14T02:41:35.532Z,15.22
2018-07-14T02:44:03.952Z,15.19
2018-07-14T02:46:31.648Z,15.30
2018-07-14T02:48:59.394Z,15.39
2018-07-14T02:51:27.109Z,15.55
2018-07-14T02:53:54.787Z,15.80
2018-07-14T02:56:22.437Z,16.06
2018-07-14T02:58:50.093Z,16.17
2018-07-14T03:01:17.746Z,16.38
2018-07-14T03:03:45.410Z,16.54
2018-07-14T03:06:13.090Z,16.28
2018-07-14T03:08:40.727Z,16.04
2018-07-14T03:11:08.405Z,15.88
2018-07-14T03:13:36.038Z,15.82
2018-07-14T03:16:03.710Z,15.70
2018-07-14T03:18:31.377Z,15.79
2018-07-14T03:20:59.129Z,15.78
2018-07-14T03:23:26.789Z,15.34
2018-07-14T03:25:54.454Z,15.78
2018-07-14T03:28:22.125Z,15.83
2018-07-14T03:30:49.790Z,15.92
2018-07-14T03:33:17.485Z,16.15
2018-07-14T03:35:45.186Z,16.38
2018-07-14T03:38:12.849Z,16.48
2018-07-14T03:40:40.522Z,16.47
2018-07-14T03:43:08.181Z,16.47
2018-07-14T03:45:35.834Z,16.60
2018-07-14T03:48:03.509Z,16.55
2018-07-14T03:50:31.233Z,16.51
2018-07-14T03:52:58.898Z,16.45
2018-07-14T03:55:26.566Z,16.55
2018-07-14T03:57:54.214Z,16.62
2018-07-14T04:00:21.869Z,16.72
2018-07-14T04:02:49.510Z,17.14
2018-07-14T04:05:17.173Z,17.58
2018-07-14T04:07:44.846Z,17.95
2018-07-14T04:10:12.533Z,18.04
2018-07-14T04:12:40.201Z,18.36
2018-07-14T04:15:07.868Z,18.45
2018-07-14T04:17:35.566Z,18.56
2018-07-14T04:20:03.310Z,18.66
2018-07-14T04:22:31.225Z,18.80
2018-07-14T04:24:58.910Z,18.99
2018-07-14T04:27:26.578Z,18.98
2018-07-14T04:29:54.247Z,19.11
2018-07-14T04:32:21.914Z,19.25
2018-07-14T04:34:49.581Z,19.31
2018-07-14T04:37:17.253Z,19.56
2018-07-14T04:39:44.915Z,19.70
2018-07-14T04:42:12.598Z,19.86
2018-07-14T04:44:40.295Z,20.03
2018-07-14T04:47:07.954Z,20.17
2018-07-14T04:49:35.653Z,20.37
2018-07-14T04:52:03.355Z,20.51
2018-07-14T04:54:31.018Z,20.50
2018-07-14T04:56:58.728Z,20.56
2018-07-14T04:59:26.390Z,20.45
2018-07-14T05:01:54.060Z,20.31
2018-07-14T05:04:21.738Z,20.30
2018-07-14T05:06:49.442Z,20.26
2018-07-14T05:09:17.160Z,20.48
2018-07-14T05:11:44.837Z,20.46
2018-07-14T05:14:12.485Z,20.59
2018-07-14T05:16:40.178Z,20.80
2018-07-14T05:19:07.837Z,20.55
2018-07-14T05:21:35.477Z,21.01
2018-07-14T05:24:03.185Z,20.93
2018-07-14T05:26:30.864Z,20.93
2018-07-14T05:28:58.510Z,20.98
2018-07-14T05:31:26.185Z,21.01
2018-07-14T05:33:53.884Z,21.04
2018-07-14T05:36:21.570Z,21.05
2018-07-14T05:38:49.264Z,21.13
2018-07-14T05:41:16.928Z,21.08
2018-07-14T05:43:44.643Z,21.07
2018-07-14T05:46:12.454Z,21.03
2018-07-14T05:48:40.133Z,21.00
2018-07-14T05:51:07.818Z,21.06
2018-07-14T05:53:35.489Z,21.06
2018-07-14T05:56:03.213Z,21.11
2018-07-14T05:58:30.913Z,21.14
2018-07-14T06:00:58.598Z,21.19
2018-07-14T06:03:26.241Z,21.32
2018-07-14T06:05:53.951Z,21.19
2018-07-14T06:08:21.613Z,21.18
2018-07-14T06:10:49.285Z,21.11
2018-07-14T06:13:16.945Z,21.17
2018-07-14T06:15:44.645Z,21.16
2018-07-14T06:18:12.334Z,21.22
2018-07-14T06:20:40.039Z,21.20
2018-07-14T06:23:07.732Z,21.17
2018-07-14T06:25:35.407Z,21.14
2018-07-14T06:28:03.163Z,21.21
2018-07-14T06:30:30.845Z,21.30
2018-07-14T06:32:58.549Z,21.37
2018-07-14T06:35:26.204Z,21.39
2018-07-14T06:37:53.873Z,21.42
2018-07-14T06:40:21.565Z,21.43
2018-07-14T06:42:49.233Z,21.44
2018-07-14T06:45:16.951Z,21.42
2018-07-14T06:47:44.601Z,21.46
2018-07-14T06:50:12.341Z,21.46
2018-07-14T06:52:40.061Z,21.49
2018-07-14T06:55:07.705Z,21.50
2018-07-14T06:57:35.489Z,21.55
2018-07-14T07:00:03.270Z,21.60
2018-07-14T07:02:30.995Z,21.60
2018-07-14T07:04:58.653Z,21.61
2018-07-14T07:07:26.356Z,21.65
2018-07-14T07:09:54.014Z,21.68
2018-07-14T07:12:21.704Z,21.72
2018-07-14T07:14:49.390Z,21.71
2018-07-14T07:17:17.054Z,21.73
2018-07-14T07:19:44.768Z,21.70
2018-07-14T07:22:12.463Z,21.70
2018-07-14T07:24:40.174Z,21.73
2018-07-14T07:27:07.830Z,21.72
2018-07-14T07:29:35.495Z,21.73
2018-07-14T07:32:03.173Z,21.76
2018-07-14T07:34:30.841Z,21.79
2018-07-14T07:36:58.478Z,21.77
2018-07-14T07:39:26.165Z,21.81
2018-07-14T07:41:53.853Z,21.80
2018-07-14T07:44:21.529Z,21.82
2018-07-14T07:46:49.237Z,21.80
2018-07-14T07:49:16.923Z,21.83
2018-07-14T07:51:44.573Z,21.84
2018-07-14T07:54:12.231Z,21.84
2018-07-14T07:56:39.923Z,21.86
2018-07-14T07:59:07.592Z,21.90
2018-07-14T08:01:35.440Z,21.88
2018-07-14T08:04:03.119Z,21.91
2018-07-14T08:06:30.803Z,21.92
2018-07-14T08:08:58.527Z,21.89
2018-07-14T08:11:26.172Z,21.89
2018-07-14T08:13:53.884Z,21.89
2018-07-14T08:16:21.860Z,21.90
2018-07-14T08:18:49.558Z,21.92
2018-07-14T08:21:17.238Z,21.92
2018-07-14T08:23:44.919Z,21.86
2018-07-14T08:26:12.587Z,21.91
2018-07-14T08:28:40.278Z,21.92
2018-07-14T08:31:07.967Z,21.90
2018-07-14T08:33:35.637Z,21.93
2018-07-14T08:36:03.324Z,21.90
2018-07-14T08:38:31.005Z,21.90
2018-07-14T08:40:58.661Z,21.90
2018-07-14T08:43:26.344Z,21.90
2018-07-14T08:45:54.007Z,21.91
2018-07-14T08:48:21.683Z,21.92
2018-07-14T08:50:49.374Z,21.92
2018-07-14T08:53:17.030Z,21.92
2018-07-14T08:55:44.684Z,21.92
2018-07-14T08:58:12.375Z,21.97
2018-07-14T09:00:40.026Z,21.98
2018-07-14T09:03:07.705Z,22.01
2018-07-14T09:05:35.381Z,22.00
2018-07-14T09:08:03.056Z,22.01
2018-07-14T09:10:30.716Z,22.01
2018-07-14T09:12:58.368Z,22.01
2018-07-14T09:15:26.006Z,22.01
2018-07-14T09:17:53.645Z,22.00
2018-07-14T09:20:21.327Z,22.04
2018-07-14T09:22:49.053Z,22.06
2018-07-14T09:25:16.698Z,22.05
2018-07-14T09:27:44.364Z,21.84
2018-07-14T09:30:12.220Z,22.12
2018-07-14T09:32:39.880Z,22.14
2018-07-14T09:35:07.606Z,22.23
2018-07-14T09:37:35.310Z,22.18
2018-07-14T09:40:02.991Z,22.17
2018-07-14T09:42:30.665Z,22.20
2018-07-14T09:44:58.374Z,22.15
2018-07-14T09:47:26.122Z,22.18
2018-07-14T09:49:53.805Z,22.20
2018-07-14T09:52:21.503Z,22.19
2018-07-14T09:54:49.190Z,22.20
2018-07-14T09:57:16.891Z,22.17
2018-07-14T09:59:44.597Z,22.21
2018-07-14T10:02:12.281Z,22.21
2018-07-14T10:04:39.962Z,22.23
2018-07-14T10:07:07.638Z,22.22
2018-07-14T10:09:35.288Z,22.25
2018-07-14T10:12:02.944Z,22.23
2018-07-14T10:14:30.622Z,22.25
2018-07-14T10:16:58.272Z,22.31
2018-07-14T10:19:25.912Z,22.30
2018-07-14T10:21:53.589Z,22.26
2018-07-14T10:24:21.246Z,22.25
2018-07-14T10:26:48.927Z,22.24
2018-07-14T10:29:16.577Z,21.75
2018-07-14T10:31:44.236Z,22.28
2018-07-14T10:34:11.926Z,22.27
2018-07-14T10:36:39.574Z,21.86
2018-07-14T10:39:07.702Z,22.29
2018-07-14T10:41:35.403Z,22.27
2018-07-14T10:44:03.163Z,22.29
2018-07-14T10:46:30.797Z,22.30
2018-07-14T10:48:58.442Z,22.30
2018-07-14T10:51:26.108Z,22.29
2018-07-14T10:53:53.817Z,22.30
2018-07-14T10:56:21.504Z,22.30
2018-07-14T10:58:49.173Z,22.29
2018-07-14T11:01:16.833Z,22.27
2018-07-14T11:03:44.520Z,22.27
2018-07-14T11:06:12.218Z,22.27
2018-07-14T11:08:39.898Z,22.29
2018-07-14T11:11:07.537Z,22.31
2018-07-14T11:13:35.225Z,22.32
2018-07-14T11:16:02.878Z,22.33
2018-07-14T11:18:30.594Z,22.33
2018-07-14T11:20:58.272Z,22.32
2018-07-14T11:23:25.942Z,22.31
2018-07-14T11:25:53.611Z,22.33
2018-07-14T11:28:21.302Z,22.34
2018-07-14T11:30:48.963Z,22.33
2018-07-14T11:33:16.625Z,22.34
2018-07-14T11:35:44.277Z,22.35
2018-07-14T11:38:11.991Z,22.35
2018-07-14T11:40:39.649Z,22.37
2018-07-14T11:43:07.364Z,22.40
2018-07-14T11:45:35.030Z,22.41
2018-07-14T11:48:02.724Z,22.43
2018-07-14T11:50:30.428Z,22.45
2018-07-14T11:52:58.115Z,22.47
2018-07-14T11:55:25.779Z,22.49
2018-07-14T11:57:53.445Z,22.47
2018-07-14T12:00:21.138Z,22.48
2018-07-14T12:02:48.805Z,22.45
2018-07-14T12:05:16.697Z,22.46
2018-07-14T12:07:44.364Z,22.43
2018-07-14T12:10:12.074Z,22.41
2018-07-14T12:12:39.753Z,22.39
2018-07-14T12:15:07.533Z,22.42
2018-07-14T12:17:35.218Z,22.44
2018-07-14T12:20:02.966Z,22.45
2018-07-14T12:22:30.665Z,22.43
2018-07-14T12:24:58.377Z,22.46
2018-07-14T12:27:26.054Z,22.49
2018-07-14T12:29:53.697Z,22.45
2018-07-14T12:32:21.360Z,22.47
2018-07-14T12:34:49.032Z,22.51
2018-07-14T12:37:16.673Z,22.49
2018-07-14T12:39:44.357Z,22.46
2018-07-14T12:42:12.036Z,22.48
2018-07-14T12:44:39.697Z,22.48
2018-07-14T12:47:07.393Z,22.51
2018-07-14T12:49:35.070Z,22.49
2018-07-14T12:52:02.759Z,22.51
2018-07-14T12:54:30.427Z,22.52
2018-07-14T12:56:58.139Z,22.53
2018-07-14T12:59:25.793Z,22.53
2018-07-14T13:01:53.483Z,22.56
2018-07-14T13:04:21.194Z,22.61
2018-07-14T13:06:48.923Z,22.65
2018-07-14T13:09:16.589Z,22.61
2018-07-14T13:11:44.282Z,22.56
2018-07-14T13:14:12.014Z,22.54
2018-07-14T13:16:39.682Z,22.52
2018-07-14T13:19:07.372Z,22.54
2018-07-14T13:21:35.049Z,22.54
2018-07-14T13:24:02.728Z,22.56
2018-07-14T13:26:30.387Z,22.55
2018-07-14T13:28:58.045Z,22.57
2018-07-14T13:31:25.709Z,22.53
2018-07-14T13:33:53.408Z,22.54
2018-07-14T13:36:21.136Z,22.58
2018-07-14T13:38:51.735Z,22.61
2018-07-14T13:41:16.683Z,22.65
2018-07-14T13:43:44.346Z,22.70
2018-07-14T13:46:12.014Z,22.78
2018-07-14T13:48:39.673Z,22.87
2018-07-14T13:51:07.436Z,22.84
2018-07-14T13:53:35.106Z,22.91
2018-07-14T13:56:02.866Z,22.90
2018-07-14T13:58:30.562Z,22.94
2018-07-14T14:00:58.285Z,22.99
2018-07-14T14:03:25.957Z,23.02
2018-07-14T14:05:53.621Z,23.01
2018-07-14T14:08:21.307Z,22.99
2018-07-14T14:10:48.982Z,22.96
2018-07-14T14:13:16.641Z,22.99
2018-07-14T14:15:44.319Z,23.01
2018-07-14T14:18:11.969Z,23.06
2018-07-14T14:20:39.661Z,23.05
2018-07-14T14:23:07.383Z,23.05
2018-07-14T14:25:35.037Z,23.10
2018-07-14T14:28:02.789Z,23.14
2018-07-14T14:30:30.466Z,23.19
2018-07-14T14:35:25.158Z,23.19
2018-07-14T14:37:52.813Z,23.18
2018-07-14T14:40:20.722Z,23.20
2018-07-14T14:42:48.555Z,23.20
2018-07-14T14:45:16.230Z,23.21
2018-07-14T14:47:44.052Z,23.22
2018-07-14T14:50:11.760Z,23.26
2018-07-14T14:52:39.488Z,23.24
2018-07-14T14:55:07.259Z,23.27
2018-07-14T14:57:34.963Z,23.29
2018-07-14T15:00:02.716Z,23.29
2018-07-14T15:02:30.457Z,23.32
2018-07-14T15:04:58.115Z,23.32
2018-07-14T15:07:25.833Z,23.32
2018-07-14T15:09:54.336Z,23.31
2018-07-14T15:12:22.030Z,23.30
2018-07-14T15:14:49.702Z,23.22
2018-07-14T15:17:17.373Z,23.19
2018-07-14T15:19:45.026Z,23.16
2018-07-14T15:22:12.731Z,23.15
2018-07-14T15:24:40.397Z,23.14
2018-07-14T15:27:08.092Z,23.13
2018-07-14T15:29:35.809Z,23.15
2018-07-14T15:32:03.515Z,23.14
2018-07-14T15:34:31.207Z,23.17
2018-07-14T15:36:58.913Z,23.18
2018-07-14T15:39:26.571Z,23.21
2018-07-14T15:41:54.227Z,23.21
2018-07-14T15:44:21.915Z,23.20
2018-07-14T15:46:49.584Z,23.22
2018-07-14T15:49:17.273Z,23.24
2018-07-14T15:51:44.940Z,23.26
2018-07-14T15:54:12.658Z,23.25
2018-07-14T15:56:40.314Z,23.29
2018-07-14T15:59:07.992Z,23.30
2018-07-14T16:01:35.646Z,23.29
2018-07-14T16:04:03.337Z,23.27
2018-07-14T16:06:31.030Z,23.27
2018-07-14T16:08:58.805Z,23.28
2018-07-14T16:11:28.131Z,23.27
2018-07-14T16:13:55.795Z,23.29
2018-07-14T16:16:23.454Z,23.32
2018-07-14T16:18:51.135Z,23.34
2018-07-14T16:21:18.826Z,23.34
2018-07-14T16:23:46.500Z,23.34
2018-07-14T16:26:14.207Z,23.32
2018-07-14T16:28:41.872Z,23.33
2018-07-14T16:31:09.540Z,23.34
2018-07-14T16:33:37.217Z,23.38
2018-07-14T16:36:04.916Z,23.36
2018-07-14T16:38:32.618Z,23.37
2018-07-14T16:41:00.326Z,23.37
2018-07-14T16:43:27.981Z,23.38
2018-07-14T16:45:55.667Z,23.40
2018-07-14T16:48:23.333Z,23.37
2018-07-14T16:50:51.001Z,23.38
2018-07-14T16:53:18.669Z,23.39
2018-07-14T16:55:46.356Z,23.41
2018-07-14T16:58:13.996Z,23.40
2018-07-14T17:00:41.693Z,23.41
2018-07-14T17:03:09.434Z,23.38
2018-07-14T17:05:37.105Z,23.36
2018-07-14T17:08:04.818Z,23.33
2018-07-14T17:10:32.528Z,23.28
2018-07-14T17:13:00.217Z,23.26
2018-07-14T17:15:27.881Z,23.21
2018-07-14T17:17:55.575Z,23.16
2018-07-14T17:20:23.229Z,23.17
2018-07-14T17:22:50.911Z,23.14
2018-07-14T17:25:18.590Z,23.12
2018-07-14T17:27:46.265Z,23.09
2018-07-14T17:30:13.963Z,23.07
2018-07-14T17:32:41.649Z,23.06
2018-07-14T17:35:09.333Z,23.02
2018-07-14T17:37:36.997Z,23.01
2018-07-14T17:40:04.710Z,22.99
2018-07-14T17:42:32.385Z,22.97
2018-07-14T17:45:00.065Z,22.95
2018-07-14T17:47:27.742Z,22.94
2018-07-14T17:49:55.401Z,22.92
2018-07-14T17:52:23.067Z,22.91
2018-07-14T17:54:50.744Z,22.91
2018-07-14T17:57:18.409Z,22.87
2018-07-14T17:59:46.097Z,22.84
2018-07-14T18:02:13.805Z,22.83
2018-07-14T18:04:41.489Z,22.81
2018-07-14T18:07:09.159Z,22.79
2018-07-14T18:09:36.817Z,22.78
2018-07-14T18:12:04.509Z,22.70
2018-07-14T18:14:32.187Z,22.69
2018-07-14T18:16:59.850Z,22.68
2018-07-14T18:19:27.553Z,22.64
2018-07-14T18:21:55.249Z,22.60
2018-07-14T18:24:22.898Z,22.54
2018-07-14T18:26:50.537Z,22.42
2018-07-14T18:29:18.201Z,22.33
2018-07-14T18:31:45.842Z,22.41
2018-07-14T18:34:13.509Z,22.42
2018-07-14T18:36:41.194Z,22.41
2018-07-14T18:39:09.045Z,22.26
2018-07-14T18:41:36.809Z,22.32
2018-07-14T18:44:04.539Z,22.32
2018-07-14T18:46:32.307Z,22.33
2018-07-14T18:48:59.969Z,22.37
2018-07-14T18:51:27.653Z,22.36
2018-07-14T18:53:55.686Z,22.39
2018-07-14T18:56:23.549Z,22.38
2018-07-14T18:58:53.396Z,22.41
2018-07-14T19:01:21.135Z,22.39
2018-07-14T19:03:48.810Z,22.34
2018-07-14T19:06:16.507Z,22.24
2018-07-14T19:08:44.238Z,22.22
2018-07-14T19:11:11.895Z,22.30
2018-07-14T19:13:39.606Z,22.26
2018-07-14T19:16:07.321Z,22.21
2018-07-14T19:18:35.079Z,22.26
2018-07-14T19:21:02.780Z,22.13
2018-07-14T19:23:30.502Z,22.13
2018-07-14T19:25:58.296Z,22.07
2018-07-14T19:28:25.876Z,22.16
2018-07-14T19:30:53.616Z,22.19
2018-07-14T19:33:21.327Z,22.15
2018-07-14T19:35:48.989Z,22.05
2018-07-14T19:38:16.649Z,22.08
2018-07-14T19:40:44.346Z,22.06
2018-07-14T19:43:11.989Z,21.94
2018-07-14T19:45:39.637Z,21.76
2018-07-14T19:48:07.456Z,21.75
2018-07-14T19:50:35.126Z,21.73
2018-07-14T19:53:02.825Z,21.76
2018-07-14T19:55:30.666Z,21.74
2018-07-14T19:57:58.246Z,21.68
2018-07-14T20:00:25.912Z,21.60
2018-07-14T20:02:53.603Z,21.69
2018-07-14T20:05:21.273Z,21.67
2018-07-14T20:07:49.299Z,21.52
2018-07-14T20:10:16.994Z,21.46
2018-07-14T20:12:44.644Z,21.44
2018-07-14T20:15:12.314Z,21.51
2018-07-14T20:17:40.017Z,21.50
2018-07-14T20:20:08.248Z,21.47
2018-07-14T20:22:35.881Z,21.50
2018-07-14T20:25:03.602Z,21.37
2018-07-14T20:27:31.330Z,21.13
2018-07-14T20:29:59.056Z,21.28
2018-07-14T20:32:26.738Z,21.23
2018-07-14T20:34:54.444Z,20.89
2018-07-14T20:37:22.109Z,21.01
2018-07-14T20:39:49.856Z,20.89
2018-07-14T20:42:17.556Z,20.75
2018-07-14T20:44:45.227Z,21.02
2018-07-14T20:47:12.894Z,20.98
2018-07-14T20:49:40.550Z,21.03
2018-07-14T20:52:08.248Z,20.76
2018-07-14T20:54:35.952Z,20.90
2018-07-14T20:57:03.806Z,20.69
2018-07-14T20:59:31.483Z,20.92
2018-07-14T21:01:59.195Z,20.92
2018-07-14T21:04:26.850Z,20.79
2018-07-14T21:06:54.563Z,20.84
2018-07-14T21:09:22.205Z,20.79
2018-07-14T21:11:49.913Z,20.33
2018-07-14T21:14:17.574Z,20.26
2018-07-14T21:16:45.265Z,20.25
2018-07-14T21:19:12.908Z,20.51
2018-07-14T21:21:40.625Z,20.67
2018-07-14T21:24:08.304Z,20.35
2018-07-14T21:26:35.991Z,20.34
2018-07-14T21:29:03.778Z,20.51
2018-07-14T21:31:31.480Z,20.40
2018-07-14T21:33:59.181Z,20.38
2018-07-14T21:36:26.884Z,20.40
2018-07-14T21:38:54.593Z,20.21
2018-07-14T21:41:22.294Z,20.37
2018-07-14T21:43:49.941Z,20.31
2018-07-14T21:46:17.638Z,20.19
2018-07-14T21:48:45.569Z,20.01
2018-07-14T21:51:13.258Z,20.16
2018-07-14T21:53:40.925Z,19.68
2018-07-14T21:56:08.612Z,19.73
2018-07-14T21:58:36.297Z,19.94
2018-07-14T22:01:09.490Z,20.11
2018-07-14T22:03:37.264Z,19.85
2018-07-14T22:06:05.202Z,19.93
2018-07-14T22:08:32.869Z,20.04
2018-07-14T22:11:00.937Z,19.48
2018-07-14T22:13:28.585Z,19.30
2018-07-14T22:15:56.253Z,19.53
2018-07-14T22:18:23.930Z,19.54
2018-07-14T22:20:52.807Z,19.56
2018-07-14T22:23:20.511Z,19.62
2018-07-14T22:25:48.198Z,19.47
2018-07-14T22:28:15.887Z,19.34
2018-07-14T22:30:43.617Z,19.66
2018-07-14T22:33:11.310Z,19.68
2018-07-14T22:35:38.972Z,19.64
2018-07-14T22:38:06.729Z,19.58
2018-07-14T22:40:34.433Z,19.63
2018-07-14T22:43:02.131Z,19.26
2018-07-14T22:45:29.799Z,19.41
2018-07-14T22:47:57.554Z,19.51
2018-07-14T22:50:25.222Z,19.39
2018-07-14T22:52:52.914Z,19.06
2018-07-14T22:55:20.569Z,19.14
2018-07-14T22:57:48.221Z,18.77
2018-07-14T23:00:15.934Z,19.12
2018-07-14T23:02:43.644Z,19.32
2018-07-14T23:05:11.330Z,19.25
2018-07-14T23:07:39.002Z,19.34
2018-07-14T23:10:06.662Z,19.24
2018-07-14T23:12:34.381Z,19.06
2018-07-14T23:15:02.166Z,18.98
2018-07-14T23:17:29.843Z,18.82
2018-07-14T23:19:57.583Z,18.87
2018-07-14T23:22:25.278Z,18.69
2018-07-14T23:24:53.035Z,18.76
2018-07-14T23:27:20.692Z,18.97
2018-07-14T23:29:48.377Z,18.84
2018-07-14T23:32:16.114Z,18.89
2018-07-14T23:34:43.802Z,18.71
2018-07-14T23:37:11.492Z,18.73
2018-07-14T23:39:39.198Z,18.84
2018-07-14T23:42:06.865Z,18.71
2018-07-14T23:44:34.533Z,18.58
2018-07-14T23:47:02.260Z,18.21
2018-07-14T23:49:29.956Z,18.36
2018-07-14T23:51:57.637Z,18.55
2018-07-14T23:54:25.675Z,18.65
2018-07-14T23:56:53.354Z,18.61
2018-07-14T23:59:21.040Z,18.51
